Time;durP1;ratioP1;P1;durP2;ratioP2;P2;SDS_P1;SDS_P2;PMS_P1;PMS_P2;Temp;Humidity;BMP_temperature;BMP_pressure;BME280_temperature;BME280_humidity;BME280_pressure;Samples;Min_cycle;Max_cycle;Signal;HPM_P1;HPM_P2
2023/04/14 00:00:32;;;;;;;6.13;2.50;;;4.90;99.90;;;;;;5052305;28;20438;-83
2023/04/14 00:03:00;;;;;;;5.13;2.65;;;4.90;99.90;;;;;;5066393;28;20401;-81
2023/04/14 00:05:30;;;;;;;4.95;2.80;;;4.90;99.90;;;;;;5067108;28;20485;-81
2023/04/14 00:07:56;;;;;;;3.08;2.60;;;4.90;99.90;;;;;;5064508;28;20401;-82
2023/04/14 00:10:22;;;;;;;4.97;2.50;;;5.00;99.90;;;;;;5060654;28;20394;-82
2023/04/14 00:12:50;;;;;;;4.55;2.60;;;5.00;99.90;;;;;;5069623;28;20405;-82
2023/04/14 00:15:17;;;;;;;3.97;2.63;;;4.90;99.90;;;;;;5064215;28;20485;-81
2023/04/14 00:17:43;;;;;;;4.32;2.38;;;5.00;99.90;;;;;;5066162;28;20428;-83
2023/04/14 00:20:09;;;;;;;4.13;2.20;;;5.00;99.90;;;;;;5071187;28;20728;-83
2023/04/14 00:22:34;;;;;;;3.85;2.20;;;5.10;99.90;;;;;;5067186;28;20402;-82
2023/04/14 00:25:00;;;;;;;4.10;2.05;;;5.20;99.90;;;;;;5071040;28;20494;-83
2023/04/14 00:27:27;;;;;;;4.20;2.20;;;5.10;99.90;;;;;;5091520;28;20416;-82
2023/04/14 00:29:53;;;;;;;3.78;2.67;;;5.20;99.90;;;;;;5074934;28;20383;-82
2023/04/14 00:32:18;;;;;;;3.37;2.30;;;5.20;99.90;;;;;;5063183;28;20694;-82
2023/04/14 00:34:44;;;;;;;4.55;2.45;;;5.40;99.90;;;;;;5055760;28;20405;-82
2023/04/14 00:37:10;;;;;;;4.05;2.30;;;5.30;99.90;;;;;;5066784;28;20438;-83
2023/04/14 00:39:36;;;;;;;5.28;2.80;;;5.40;99.90;;;;;;5069789;28;20400;-82
2023/04/14 00:42:04;;;;;;;2.75;2.30;;;5.40;99.90;;;;;;5070993;28;20386;-80
2023/04/14 00:44:30;;;;;;;3.22;2.42;;;5.50;99.90;;;;;;5083779;28;20400;-81
2023/04/14 00:46:58;;;;;;;3.92;2.25;;;5.50;99.90;;;;;;5062169;28;20756;-83
2023/04/14 00:49:27;;;;;;;3.42;2.30;;;5.70;99.90;;;;;;5067934;28;20416;-83
2023/04/14 00:51:53;;;;;;;4.55;2.85;;;5.70;99.90;;;;;;5071453;28;20381;-83
2023/04/14 00:54:19;;;;;;;4.38;2.80;;;5.70;99.90;;;;;;5071041;28;20394;-84
2023/04/14 00:56:56;;;;;;;3.83;3.00;;;5.70;99.90;;;;;;5055948;28;20432;-84
2023/04/14 00:59:22;;;;;;;5.15;3.58;;;5.70;99.90;;;;;;5051741;28;20433;-83
2023/04/14 01:01:47;;;;;;;6.45;3.85;;;5.70;99.90;;;;;;5050641;28;20388;-84
2023/04/14 01:04:15;;;;;;;5.22;3.78;;;5.80;99.90;;;;;;5050707;28;20384;-82
2023/04/14 01:06:40;;;;;;;5.50;3.90;;;5.80;99.90;;;;;;5052830;28;20425;-83
2023/04/14 01:09:08;;;;;;;6.00;4.15;;;5.70;99.90;;;;;;5069506;28;20468;-82
2023/04/14 01:11:53;;;;;;;6.22;4.13;;;5.70;99.90;;;;;;5071968;28;20702;-82
2023/04/14 01:14:26;;;;;;;6.00;4.05;;;5.80;99.90;;;;;;5072781;28;20389;-84
2023/04/14 01:16:56;;;;;;;5.83;3.57;;;5.80;99.90;;;;;;5073428;28;20402;-83
2023/04/14 01:19:41;;;;;;;4.78;3.15;;;5.70;99.90;;;;;;5072037;28;20465;-83
2023/04/14 01:22:09;;;;;;;5.40;3.83;;;5.80;99.90;;;;;;5071394;28;20420;-82
2023/04/14 01:24:46;;;;;;;6.82;3.85;;;5.60;99.90;;;;;;5070132;28;20404;-84
2023/04/14 01:27:21;;;;;;;5.77;3.57;;;5.40;99.90;;;;;;5069769;28;20397;-83
2023/04/14 01:30:20;;;;;;;5.65;4.57;;;5.50;99.90;;;;;;5070500;28;20426;-84
2023/04/14 01:32:50;;;;;;;7.07;4.00;;;5.30;99.90;;;;;;5072551;28;20726;-84
2023/04/14 01:35:25;;;;;;;5.55;3.40;;;5.20;99.90;;;;;;5071932;28;20404;-82
2023/04/14 01:38:03;;;;;;;4.47;3.30;;;5.40;99.90;;;;;;5070930;28;20737;-82
2023/04/14 01:40:31;;;;;;;4.75;2.92;;;5.40;99.90;;;;;;5070220;28;20879;-82
2023/04/14 01:43:03;;;;;;;4.38;3.15;;;5.40;99.90;;;;;;5051694;28;20427;-82
2023/04/14 01:45:37;;;;;;;3.85;2.70;;;5.40;99.90;;;;;;5082851;28;20455;-82
2023/04/14 01:48:05;;;;;;;4.50;3.10;;;5.40;99.90;;;;;;5351684;22;20504;-81
2023/04/14 01:50:33;;;;;;;4.45;2.50;;;5.40;99.90;;;;;;5081803;28;20384;-81
2023/04/14 01:53:00;;;;;;;5.90;3.00;;;5.60;99.90;;;;;;5074135;28;20409;-82
2023/04/14 01:55:30;;;;;;;4.50;3.10;;;5.70;99.90;;;;;;5069118;28;20414;-81
2023/04/14 01:57:57;;;;;;;3.45;2.90;;;5.80;99.90;;;;;;5067764;28;20505;-82
2023/04/14 02:00:24;;;;;;;6.27;3.20;;;5.70;99.90;;;;;;5070430;28;20593;-83
2023/04/14 02:02:53;;;;;;;5.07;3.08;;;5.70;99.90;;;;;;5068703;28;20481;-83
2023/04/14 02:05:21;;;;;;;5.20;3.28;;;5.60;99.90;;;;;;5069293;28;20401;-82
2023/04/14 02:07:48;;;;;;;4.68;2.85;;;5.70;99.90;;;;;;5068850;28;20415;-82
2023/04/14 02:10:19;;;;;;;4.10;2.90;;;5.70;99.90;;;;;;5070494;28;20466;-83
2023/04/14 02:12:47;;;;;;;4.00;2.90;;;5.70;99.90;;;;;;5088346;28;20372;-82
2023/04/14 02:15:16;;;;;;;4.40;2.97;;;5.70;99.90;;;;;;5089960;28;20386;-81
2023/04/14 02:17:48;;;;;;;4.88;3.30;;;5.60;99.90;;;;;;5092488;28;20376;-81
2023/04/14 02:20:15;;;;;;;4.85;3.10;;;5.60;99.90;;;;;;5092780;28;20419;-81
2023/04/14 02:22:40;;;;;;;4.05;3.25;;;5.60;99.90;;;;;;5090995;28;20376;-82
2023/04/14 02:25:08;;;;;;;5.00;3.03;;;5.70;99.90;;;;;;5090771;28;20412;-83
2023/04/14 02:27:51;;;;;;;6.43;3.58;;;5.60;99.90;;;;;;5087417;28;20378;-82
2023/04/14 02:30:26;;;;;;;5.15;3.53;;;5.70;99.90;;;;;;5070074;28;20404;-80
2023/04/14 02:33:07;;;;;;;5.55;3.60;;;5.70;99.90;;;;;;5069922;28;20443;-81
2023/04/14 02:35:39;;;;;;;5.75;3.70;;;5.80;99.90;;;;;;5071087;28;20487;-82
2023/04/14 02:38:15;;;;;;;4.50;3.47;;;6.00;99.90;;;;;;5069934;28;20473;-81
2023/04/14 02:40:42;;;;;;;6.03;3.50;;;5.90;99.90;;;;;;5073605;28;20432;-82
2023/04/14 02:43:23;;;;;;;5.00;3.33;;;5.90;99.90;;;;;;5073365;28;20374;-82
2023/04/14 02:45:52;;;;;;;6.60;3.70;;;5.90;99.90;;;;;;5072358;28;20378;-81
2023/04/14 02:48:22;;;;;;;4.43;3.30;;;5.90;99.90;;;;;;5061564;28;20420;-83
2023/04/14 02:50:51;;;;;;;4.40;3.17;;;5.80;99.90;;;;;;5061790;28;20860;-82
2023/04/14 02:53:21;;;;;;;5.43;3.70;;;5.90;99.90;;;;;;5072502;28;20460;-82
2023/04/14 02:55:50;;;;;;;4.88;3.55;;;6.00;99.90;;;;;;5072469;28;21076;-82
2023/04/14 02:58:16;;;;;;;4.72;3.40;;;6.10;99.90;;;;;;5074351;28;20381;-82
2023/04/14 03:00:43;;;;;;;4.38;3.35;;;6.10;99.90;;;;;;5074778;28;20934;-80
2023/04/14 03:03:11;;;;;;;4.45;3.55;;;6.30;99.90;;;;;;5072977;28;20382;-81
2023/04/14 03:05:40;;;;;;;4.05;3.20;;;6.30;99.90;;;;;;5089971;28;20806;-82
2023/04/14 03:08:07;;;;;;;4.60;3.22;;;6.30;99.90;;;;;;5070474;28;20405;-82
2023/04/14 03:10:33;;;;;;;4.45;3.40;;;6.30;99.90;;;;;;5072393;28;20394;-82
2023/04/14 03:13:02;;;;;;;4.30;3.00;;;6.20;99.90;;;;;;5071768;28;20402;-81
2023/04/14 03:15:30;;;;;;;3.45;3.10;;;6.30;99.90;;;;;;5070325;28;20402;-82
2023/04/14 03:17:56;;;;;;;3.77;3.10;;;6.30;99.90;;;;;;5072688;28;20539;-82
2023/04/14 03:20:22;;;;;;;4.93;3.50;;;6.40;99.90;;;;;;5071886;28;20481;-80
2023/04/14 03:22:56;;;;;;;6.95;4.10;;;6.40;99.90;;;;;;5072114;28;20412;-82
2023/04/14 03:25:26;;;;;;;4.85;3.80;;;6.30;99.90;;;;;;5070288;28;20464;-82
2023/04/14 03:27:58;;;;;;;4.88;3.28;;;6.20;99.90;;;;;;5084989;28;20394;-81
2023/04/14 03:30:26;;;;;;;6.38;3.85;;;6.30;99.90;;;;;;5071681;28;20402;-81
2023/04/14 03:32:53;;;;;;;6.25;4.35;;;6.10;99.90;;;;;;5071598;28;20390;-83
2023/04/14 03:35:21;;;;;;;6.70;4.47;;;6.20;99.90;;;;;;5071632;28;20406;-82
2023/04/14 03:37:50;;;;;;;5.32;4.60;;;6.30;99.90;;;;;;5069729;28;20398;-83
2023/04/14 03:40:17;;;;;;;5.28;4.68;;;6.40;99.90;;;;;;5071738;28;20518;-81
2023/04/14 03:42:47;;;;;;;6.82;5.00;;;6.30;99.90;;;;;;5069639;28;20451;-81
2023/04/14 03:45:14;;;;;;;6.57;5.10;;;6.00;99.90;;;;;;5067984;28;20432;-81
2023/04/14 03:47:42;;;;;;;7.32;5.22;;;5.90;99.90;;;;;;5067703;28;20413;-82
2023/04/14 03:50:11;;;;;;;5.72;4.55;;;6.00;99.90;;;;;;5071733;28;20402;-82
2023/04/14 03:52:39;;;;;;;8.70;5.82;;;6.00;99.90;;;;;;5072507;28;20386;-81
2023/04/14 03:55:07;;;;;;;8.13;4.85;;;6.10;99.90;;;;;;5072790;28;20382;-82
2023/04/14 03:57:35;;;;;;;7.60;5.43;;;6.00;99.90;;;;;;5070609;28;20413;-81
2023/04/14 04:00:03;;;;;;;6.57;4.78;;;5.90;99.90;;;;;;5071635;28;20945;-81
2023/04/14 04:02:30;;;;;;;7.50;4.40;;;6.10;99.90;;;;;;5075518;28;20390;-81
2023/04/14 04:04:58;;;;;;;7.13;4.82;;;6.30;99.90;;;;;;5082994;28;20519;-81
2023/04/14 04:07:25;;;;;;;4.80;4.15;;;6.10;99.90;;;;;;5084669;28;20408;-81
2023/04/14 04:09:52;;;;;;;6.38;4.20;;;6.10;99.90;;;;;;5074741;28;20416;-80
2023/04/14 04:12:19;;;;;;;4.65;4.25;;;6.10;99.90;;;;;;5071534;28;20725;-81
2023/04/14 04:14:45;;;;;;;5.90;4.00;;;6.10;99.90;;;;;;5069643;28;20421;-81
2023/04/14 04:17:17;;;;;;;5.53;4.07;;;6.10;99.90;;;;;;5080032;28;20452;-81
2023/04/14 04:19:43;;;;;;;7.45;4.53;;;6.20;99.90;;;;;;5072358;28;20379;-80
2023/04/14 04:22:13;;;;;;;5.20;3.85;;;6.20;99.90;;;;;;5072135;28;20919;-83
2023/04/14 04:24:44;;;;;;;4.95;4.05;;;6.30;99.90;;;;;;5069987;28;20949;-82
2023/04/14 04:27:10;;;;;;;5.32;3.63;;;6.30;99.90;;;;;;5071684;28;20465;-83
2023/04/14 04:29:37;;;;;;;4.75;3.65;;;6.40;99.90;;;;;;5070849;28;20477;-81
2023/04/14 04:32:05;;;;;;;4.78;3.47;;;6.40;99.90;;;;;;5070933;28;20384;-82
2023/04/14 04:34:31;;;;;;;7.70;3.80;;;6.50;99.90;;;;;;5071133;28;20370;-81
2023/04/14 04:37:00;;;;;;;4.28;3.40;;;6.60;99.90;;;;;;5071904;28;20394;-83
2023/04/14 04:39:28;;;;;;;4.93;3.30;;;6.60;99.90;;;;;;5070170;28;20378;-81
2023/04/14 04:42:04;;;;;;;5.00;3.90;;;6.50;99.90;;;;;;5070829;28;20386;-82
2023/04/14 04:44:34;;;;;;;4.55;4.00;;;6.40;99.90;;;;;;5070888;28;20413;-82
2023/04/14 04:47:00;;;;;;;5.60;3.67;;;6.00;99.90;;;;;;5072548;28;20382;-82
2023/04/14 04:49:27;;;;;;;5.18;3.67;;;6.10;99.90;;;;;;5071259;28;20386;-82
2023/04/14 04:51:53;;;;;;;5.88;3.80;;;6.30;99.90;;;;;;5072644;28;20787;-82
2023/04/14 04:54:22;;;;;;;4.83;3.60;;;6.40;99.90;;;;;;5070270;28;20382;-81
2023/04/14 04:56:50;;;;;;;5.07;3.53;;;6.80;99.90;;;;;;5073611;28;20468;-82
2023/04/14 04:59:18;;;;;;;4.50;3.42;;;6.70;99.90;;;;;;5073077;28;20382;-81
2023/04/14 05:01:44;;;;;;;5.85;3.58;;;6.70;99.90;;;;;;5078871;28;20381;-82
2023/04/14 05:04:11;;;;;;;4.80;3.07;;;6.70;99.90;;;;;;5072059;28;20378;-82
2023/04/14 05:06:37;;;;;;;5.28;3.85;;;6.80;99.90;;;;;;5070209;28;20378;-82
2023/04/14 05:09:03;;;;;;;5.80;3.50;;;6.70;99.90;;;;;;5078073;28;20382;-83
2023/04/14 05:11:30;;;;;;;4.93;3.53;;;6.60;99.90;;;;;;5089474;28;20966;-82
2023/04/14 05:13:55;;;;;;;4.72;3.22;;;6.70;99.90;;;;;;5089517;28;21215;-81
2023/04/14 05:16:21;;;;;;;3.97;2.80;;;7.00;99.90;;;;;;5087606;28;20408;-82
2023/04/14 05:18:47;;;;;;;5.28;3.30;;;7.00;99.90;;;;;;5087411;28;20492;-83
2023/04/14 05:21:13;;;;;;;4.93;2.90;;;6.90;99.90;;;;;;5087365;28;20368;-82
2023/04/14 05:23:42;;;;;;;5.40;2.92;;;6.90;99.90;;;;;;5070805;28;20424;-82
2023/04/14 05:26:08;;;;;;;4.50;2.90;;;7.00;99.90;;;;;;5067409;28;20474;-82
2023/04/14 05:28:34;;;;;;;4.03;3.05;;;7.10;99.90;;;;;;5069170;28;20401;-82
2023/04/14 05:31:00;;;;;;;4.90;2.70;;;7.20;99.90;;;;;;5069285;28;20386;-81
2023/04/14 05:33:25;;;;;;;4.57;3.05;;;7.40;99.90;;;;;;5068421;28;20792;-83
2023/04/14 05:35:51;;;;;;;4.38;2.88;;;7.60;99.90;;;;;;5074189;28;20436;-82
2023/04/14 05:38:18;;;;;;;4.67;2.70;;;7.70;99.90;;;;;;5069832;28;20877;-82
2023/04/14 05:40:45;;;;;;;4.40;2.90;;;7.80;99.90;;;;;;5069592;28;20484;-83
2023/04/14 05:43:10;;;;;;;3.92;2.90;;;7.70;99.90;;;;;;5069730;28;20401;-82
2023/04/14 05:45:51;;;;;;;4.63;2.97;;;7.80;99.90;;;;;;5068894;28;20495;-82
2023/04/14 05:48:16;;;;;;;3.70;3.10;;;7.80;99.90;;;;;;5065575;28;20390;-83
2023/04/14 05:50:42;;;;;;;5.07;3.38;;;7.80;99.90;;;;;;5067438;28;20385;-82
2023/04/14 05:53:10;;;;;;;3.40;3.00;;;7.90;99.90;;;;;;5067036;28;20401;-83
2023/04/14 05:55:38;;;;;;;5.00;3.20;;;7.90;99.90;;;;;;5067780;28;20424;-82
2023/04/14 05:58:04;;;;;;;3.70;3.00;;;7.90;99.90;;;;;;5066710;28;20393;-82
2023/04/14 06:00:30;;;;;;;6.68;3.47;;;7.80;99.90;;;;;;5066760;28;20390;-83
2023/04/14 06:02:56;;;;;;;5.10;3.70;;;8.00;99.90;;;;;;5066928;28;20366;-82
2023/04/14 06:05:23;;;;;;;4.85;3.38;;;8.10;99.90;;;;;;5067550;28;20467;-82
2023/04/14 06:07:48;;;;;;;4.93;3.50;;;8.30;99.90;;;;;;5067416;28;20736;-83
2023/04/14 06:10:14;;;;;;;4.75;3.47;;;8.20;99.90;;;;;;5088319;28;20376;-81
2023/04/14 06:12:39;;;;;;;4.18;3.25;;;8.40;99.90;;;;;;5058613;28;20398;-82
2023/04/14 06:15:06;;;;;;;4.63;3.20;;;8.40;99.90;;;;;;5087069;28;20393;-82
2023/04/14 06:17:32;;;;;;;4.93;3.50;;;8.40;99.90;;;;;;5071989;28;20382;-82
2023/04/14 06:19:58;;;;;;;5.30;3.38;;;8.50;99.90;;;;;;5070989;28;20405;-82
2023/04/14 06:22:28;;;;;;;5.00;3.45;;;8.50;99.90;;;;;;5080350;28;20467;-81
2023/04/14 06:24:56;;;;;;;5.00;3.43;;;8.50;99.90;;;;;;5087829;28;20398;-81
2023/04/14 06:27:23;;;;;;;6.80;3.78;;;8.40;99.90;;;;;;5086608;28;20495;-81
2023/04/14 06:29:49;;;;;;;5.78;3.47;;;8.50;99.90;;;;;;5087897;28;20402;-80
2023/04/14 06:32:15;;;;;;;4.88;3.78;;;8.50;99.90;;;;;;5078865;28;20470;-82
2023/04/14 06:34:40;;;;;;;5.40;3.65;;;8.60;99.90;;;;;;5090731;28;20710;-82
2023/04/14 06:37:06;;;;;;;5.53;4.03;;;8.50;99.90;;;;;;5089047;28;20896;-82
2023/04/14 06:39:32;;;;;;;6.67;3.80;;;8.40;99.90;;;;;;5073235;28;20450;-82
2023/04/14 06:41:57;;;;;;;4.32;3.65;;;8.40;99.90;;;;;;5067263;28;20718;-81
2023/04/14 06:44:23;;;;;;;6.43;4.17;;;8.50;99.90;;;;;;5064361;28;20753;-82
2023/04/14 06:46:49;;;;;;;6.03;3.87;;;8.50;99.90;;;;;;5072377;28;20388;-81
2023/04/14 06:49:16;;;;;;;7.55;4.05;;;8.40;99.90;;;;;;5076002;28;20859;-81
2023/04/14 06:51:43;;;;;;;5.40;3.72;;;8.20;99.90;;;;;;5091347;28;20441;-82
2023/04/14 06:54:10;;;;;;;4.72;3.72;;;8.40;99.90;;;;;;5090998;28;20388;-81
2023/04/14 06:56:36;;;;;;;5.00;4.30;;;8.60;99.90;;;;;;5090456;28;20421;-81
2023/04/14 06:59:01;;;;;;;6.43;4.40;;;8.50;99.90;;;;;;5091279;28;20373;-81
2023/04/14 07:01:27;;;;;;;6.10;4.18;;;8.60;99.90;;;;;;5090332;28;20803;-81
2023/04/14 07:03:53;;;;;;;5.20;4.20;;;8.60;99.90;;;;;;5088690;28;20375;-82
2023/04/14 07:06:18;;;;;;;6.40;4.43;;;8.50;99.90;;;;;;5069713;28;20397;-81
2023/04/14 07:08:45;;;;;;;6.15;4.63;;;8.60;99.90;;;;;;5070266;28;20467;-82
2023/04/14 07:11:11;;;;;;;5.93;5.00;;;8.30;99.90;;;;;;5070525;28;20418;-81
2023/04/14 07:13:38;;;;;;;6.00;5.00;;;8.10;99.90;;;;;;5071160;28;20405;-82
2023/04/14 07:16:05;;;;;;;6.57;5.28;;;8.40;99.90;;;;;;5070193;28;20409;-81
2023/04/14 07:18:31;;;;;;;7.72;5.63;;;8.40;99.90;;;;;;5069102;28;20450;-81
2023/04/14 07:20:58;;;;;;;6.88;5.63;;;8.30;99.90;;;;;;5068889;28;20473;-81
2023/04/14 07:23:24;;;;;;;6.57;5.13;;;8.30;99.90;;;;;;5070470;28;21386;-81
2023/04/14 07:25:54;;;;;;;7.07;5.20;;;8.60;99.90;;;;;;5073138;28;20432;-81
2023/04/14 07:28:20;;;;;;;8.43;5.20;;;8.60;99.90;;;;;;5091043;28;20373;-82
2023/04/14 07:30:47;;;;;;;6.32;5.40;;;8.70;99.90;;;;;;5090675;28;20376;-81
2023/04/14 07:33:13;;;;;;;7.78;4.90;;;8.80;99.90;;;;;;5068297;28;21025;-81
2023/04/14 07:35:39;;;;;;;6.07;5.03;;;8.80;99.90;;;;;;5065511;28;20404;-82
2023/04/14 07:38:05;;;;;;;7.53;5.13;;;9.00;99.90;;;;;;5065184;28;20400;-81
2023/04/14 07:40:31;;;;;;;6.30;5.22;;;8.90;99.90;;;;;;5068756;28;20394;-81
2023/04/14 07:42:56;;;;;;;6.87;5.43;;;8.90;99.90;;;;;;5067692;28;20420;-80
2023/04/14 07:45:22;;;;;;;7.60;5.23;;;9.10;99.90;;;;;;5069189;28;20409;-81
2023/04/14 07:47:48;;;;;;;6.18;5.15;;;9.20;99.90;;;;;;5067180;28;20959;-80
2023/04/14 07:50:14;;;;;;;6.32;5.47;;;9.10;99.90;;;;;;5067833;28;20460;-81
2023/04/14 07:52:40;;;;;;;7.00;4.82;;;9.30;99.90;;;;;;5069774;28;20431;-80
2023/04/14 07:55:06;;;;;;;6.20;5.00;;;9.30;99.90;;;;;;5069256;28;20856;-81
2023/04/14 07:57:35;;;;;;;6.80;5.40;;;9.40;99.90;;;;;;5068616;28;20410;-81
2023/04/14 08:00:01;;;;;;;6.95;4.70;;;9.50;99.90;;;;;;5068327;28;20390;-79
2023/04/14 08:02:26;;;;;;;6.60;5.03;;;9.50;99.90;;;;;;5069150;28;20390;-82
2023/04/14 08:04:52;;;;;;;6.78;5.25;;;9.60;99.90;;;;;;5069814;28;20387;-80
2023/04/14 08:07:19;;;;;;;7.20;5.33;;;9.70;99.90;;;;;;5071510;28;20377;-80
2023/04/14 08:09:45;;;;;;;9.00;5.70;;;9.60;99.90;;;;;;5069513;28;20382;-81
2023/04/14 08:12:10;;;;;;;7.78;5.55;;;9.50;99.90;;;;;;5069736;28;20431;-81
2023/04/14 08:14:36;;;;;;;6.53;5.10;;;9.50;99.90;;;;;;5069180;28;20374;-81
2023/04/14 08:17:05;;;;;;;7.60;5.17;;;9.60;99.90;;;;;;5068329;28;20444;-81
2023/04/14 08:19:32;;;;;;;8.33;6.07;;;9.60;99.90;;;;;;5069951;28;20378;-81
2023/04/14 08:21:58;;;;;;;7.00;5.77;;;9.60;99.90;;;;;;5068596;28;20378;-81
2023/04/14 08:24:24;;;;;;;7.30;5.77;;;9.60;99.90;;;;;;5069451;28;20394;-81
2023/04/14 08:26:49;;;;;;;7.63;5.80;;;9.60;99.90;;;;;;5067958;28;20378;-81
2023/04/14 08:29:15;;;;;;;10.18;6.38;;;9.70;99.90;;;;;;5067791;28;20389;-81
2023/04/14 08:31:41;;;;;;;8.20;6.30;;;9.90;99.90;;;;;;5070057;28;20375;-81
2023/04/14 08:34:06;;;;;;;7.65;6.45;;;9.80;99.90;;;;;;5071914;28;20370;-82
2023/04/14 08:36:32;;;;;;;10.23;7.03;;;9.70;99.90;;;;;;5069269;28;20398;-82
2023/04/14 08:38:59;;;;;;;7.60;6.80;;;9.80;99.90;;;;;;5071583;28;20406;-82
2023/04/14 08:41:25;;;;;;;8.05;6.53;;;9.80;99.90;;;;;;5063084;28;20409;-79
2023/04/14 08:43:52;;;;;;;7.20;6.50;;;9.80;99.90;;;;;;5070254;28;20426;-79
2023/04/14 08:46:19;;;;;;;9.88;6.70;;;9.90;99.90;;;;;;5069969;28;20393;-81
2023/04/14 08:48:48;;;;;;;6.80;6.18;;;9.90;99.90;;;;;;5069828;28;20386;-80
2023/04/14 08:51:33;;;;;;;9.43;7.18;;;9.90;99.90;;;;;;5068015;28;20455;-79
2023/04/14 08:54:01;;;;;;;8.40;6.55;;;10.00;99.90;;;;;;5069485;28;20892;-80
2023/04/14 08:56:33;;;;;;;9.65;7.28;;;9.70;99.90;;;;;;5069212;28;20433;-79
2023/04/14 08:59:00;;;;;;;8.00;6.40;;;9.70;99.90;;;;;;5066623;28;20500;-78
2023/04/14 09:01:35;;;;;;;8.13;6.75;;;9.70;99.90;;;;;;5090155;28;20376;-80
2023/04/14 09:04:03;;;;;;;8.35;7.30;;;9.70;99.90;;;;;;5078128;28;20374;-79
2023/04/14 09:06:29;;;;;;;8.02;6.53;;;9.80;99.90;;;;;;5067607;28;20394;-79
2023/04/14 09:08:59;;;;;;;7.43;6.60;;;10.00;99.90;;;;;;5069909;28;21066;-78
2023/04/14 09:11:28;;;;;;;7.20;6.50;;;10.20;99.90;;;;;;5069933;28;20428;-79
2023/04/14 09:13:55;;;;;;;7.30;6.32;;;10.20;99.90;;;;;;5067133;28;20402;-78
2023/04/14 09:16:21;;;;;;;7.57;6.13;;;10.20;99.90;;;;;;5067156;28;20405;-79
2023/04/14 09:18:48;;;;;;;9.00;6.57;;;10.10;99.90;;;;;;5062989;28;20776;-78
2023/04/14 09:21:18;;;;;;;9.17;6.33;;;10.10;99.90;;;;;;5068178;28;20393;-78
2023/04/14 09:23:45;;;;;;;9.45;7.47;;;9.80;99.90;;;;;;5070971;28;20388;-78
2023/04/14 09:26:12;;;;;;;8.32;6.20;;;9.50;99.90;;;;;;5069275;28;20393;-78
2023/04/14 09:28:41;;;;;;;8.43;6.60;;;9.60;99.90;;;;;;5067176;28;20474;-79
2023/04/14 09:31:09;;;;;;;6.30;5.70;;;9.70;99.90;;;;;;5063481;28;20444;-79
2023/04/14 09:33:42;;;;;;;7.68;5.82;;;9.90;99.90;;;;;;5066979;28;20385;-79
2023/04/14 09:36:20;;;;;;;6.75;5.40;;;10.00;99.90;;;;;;5065081;28;20402;-80
2023/04/14 09:38:48;;;;;;;5.83;5.23;;;10.00;99.90;;;;;;5078099;28;20399;-80
2023/04/14 09:44:12;;;;;;;7.25;5.40;;;9.80;99.90;;;;;;5058775;28;21119;-80
2023/04/14 09:46:59;;;;;;;5.95;5.40;;;9.60;99.90;;;;;;5062857;28;20382;-80
2023/04/14 09:49:28;;;;;;;7.35;6.05;;;9.50;99.90;;;;;;5071482;28;20385;-80
2023/04/14 09:52:05;;;;;;;6.35;5.75;;;9.60;99.90;;;;;;5059424;28;20441;-81
2023/04/14 09:54:35;;;;;;;7.40;6.65;;;9.50;99.90;;;;;;5065663;28;20829;-80
2023/04/14 09:57:09;;;;;;;7.03;6.33;;;9.60;99.90;;;;;;5066844;28;20584;-80
2023/04/14 09:59:38;;;;;;;8.05;6.32;;;9.60;99.90;;;;;;5068910;28;20860;-81
2023/04/14 10:02:08;;;;;;;7.28;6.68;;;9.40;99.90;;;;;;5069304;28;20380;-80
2023/04/14 10:04:35;;;;;;;8.18;6.90;;;9.30;99.90;;;;;;5070599;28;20461;-80
2023/04/14 10:07:09;;;;;;;7.28;6.53;;;9.30;99.90;;;;;;5070663;28;20378;-80
2023/04/14 10:09:36;;;;;;;7.57;6.70;;;9.30;99.90;;;;;;5070464;28;20709;-80
2023/04/14 10:12:06;;;;;;;8.63;7.20;;;9.30;99.90;;;;;;5071394;28;20491;-80
2023/04/14 10:14:33;;;;;;;6.57;5.90;;;9.30;99.90;;;;;;5067410;28;20441;-80
2023/04/14 10:17:03;;;;;;;7.15;5.95;;;9.30;99.90;;;;;;5067359;28;20840;-81
2023/04/14 10:19:31;;;;;;;8.88;6.13;;;9.40;99.90;;;;;;5071286;28;20397;-80
2023/04/14 10:22:16;;;;;;;8.33;6.57;;;9.40;99.90;;;;;;5068943;28;20447;-80
2023/04/14 10:24:45;;;;;;;7.75;6.40;;;9.30;99.90;;;;;;5068336;28;20390;-77
2023/04/14 10:27:20;;;;;;;6.10;5.50;;;9.20;99.90;;;;;;5070755;28;20416;-78
2023/04/14 10:29:47;;;;;;;6.43;5.50;;;9.20;99.90;;;;;;5068003;28;20433;-79
2023/04/14 10:32:16;;;;;;;6.43;5.78;;;9.20;99.90;;;;;;5069749;28;20477;-79
2023/04/14 10:35:00;;;;;;;5.63;5.05;;;9.10;99.90;;;;;;5070475;28;20447;-80
2023/04/14 10:37:26;;;;;;;6.93;4.90;;;9.10;99.90;;;;;;5068663;28;20409;-81
2023/04/14 10:39:57;;;;;;;7.53;5.23;;;9.10;99.90;;;;;;5070828;28;20720;-80
2023/04/14 10:42:23;;;;;;;6.68;5.82;;;9.10;99.90;;;;;;5069700;28;20975;-79
2023/04/14 10:45:02;;;;;;;6.35;5.75;;;9.10;99.90;;;;;;5069352;28;20384;-80
2023/04/14 10:47:28;;;;;;;5.80;5.30;;;9.10;99.90;;;;;;5066270;28;20427;-81
2023/04/14 10:49:55;;;;;;;7.65;6.00;;;9.20;99.90;;;;;;5070145;28;20783;-80
2023/04/14 10:52:24;;;;;;;6.63;5.63;;;9.30;99.90;;;;;;5071357;28;20390;-80
2023/04/14 10:54:59;;;;;;;6.57;5.68;;;9.20;99.90;;;;;;5068181;28;20987;-80
2023/04/14 10:58:01;;;;;;;6.13;5.53;;;9.30;99.90;;;;;;5067980;28;20416;-81
2023/04/14 11:01:39;;;;;;;6.38;5.65;;;9.30;99.90;;;;;;5062137;28;20900;-81
2023/04/14 11:04:56;;;;;;;6.57;5.32;;;9.20;99.90;;;;;;5069748;28;20432;-80
2023/04/14 11:07:53;;;;;;;6.13;5.18;;;9.20;99.90;;;;;;5066215;28;20473;-80
2023/04/14 11:10:19;;;;;;;5.72;5.22;;;9.20;99.90;;;;;;5066016;28;20402;-80
2023/04/14 11:12:45;;;;;;;6.20;5.00;;;9.10;99.90;;;;;;5069938;28;20485;-79
2023/04/14 11:15:12;;;;;;;5.30;4.82;;;9.20;99.90;;;;;;5070441;28;20467;-81
2023/04/14 11:17:44;;;;;;;5.25;4.75;;;9.30;99.90;;;;;;5071350;28;20409;-80
2023/04/14 11:20:17;;;;;;;5.77;5.17;;;9.20;99.90;;;;;;5061705;28;20398;-80
2023/04/14 11:22:47;;;;;;;6.75;5.85;;;9.20;99.90;;;;;;5063542;28;20398;-79
2023/04/14 11:25:21;;;;;;;5.43;4.93;;;9.40;99.90;;;;;;5071921;28;20378;-79
2023/04/14 11:27:47;;;;;;;5.30;4.28;;;9.20;99.90;;;;;;5071431;28;20386;-79
2023/04/14 11:30:19;;;;;;;5.85;4.10;;;9.20;99.90;;;;;;5068526;28;20912;-79
2023/04/14 11:32:49;;;;;;;4.30;3.90;;;9.20;99.90;;;;;;5069682;28;20381;-80
2023/04/14 11:35:16;;;;;;;4.40;3.58;;;9.20;99.90;;;;;;5067936;28;20422;-80
2023/04/14 11:37:42;;;;;;;3.60;3.30;;;9.30;99.90;;;;;;5063455;28;20410;-79
2023/04/14 11:40:15;;;;;;;3.42;3.13;;;9.30;99.90;;;;;;5068950;28;20390;-79
2023/04/14 11:42:46;;;;;;;4.47;3.22;;;9.10;99.90;;;;;;5070758;28;20736;-79
2023/04/14 11:45:14;;;;;;;3.80;3.13;;;9.10;99.90;;;;;;5070668;28;20378;-80
2023/04/14 11:47:48;;;;;;;4.38;3.58;;;9.10;99.90;;;;;;5067712;28;21192;-79
2023/04/14 11:50:16;;;;;;;4.63;3.70;;;9.00;99.90;;;;;;5068462;28;20380;-79
2023/04/14 11:52:45;;;;;;;4.50;3.20;;;9.00;99.90;;;;;;5068441;28;20377;-79
2023/04/14 11:55:14;;;;;;;4.50;4.10;;;9.10;99.90;;;;;;5067092;28;20386;-79
2023/04/14 11:57:44;;;;;;;4.45;4.03;;;9.10;99.90;;;;;;5068972;28;20923;-80
2023/04/14 12:00:13;;;;;;;5.63;4.05;;;9.10;99.90;;;;;;5067366;28;20393;-79
2023/04/14 12:02:49;;;;;;;5.43;4.30;;;9.00;99.90;;;;;;5068588;28;20462;-79
2023/04/14 12:05:30;;;;;;;5.00;4.47;;;9.00;99.90;;;;;;5066280;28;20374;-79
2023/04/14 12:08:02;;;;;;;5.25;4.75;;;9.00;99.90;;;;;;5058751;28;20450;-79
2023/04/14 12:10:28;;;;;;;7.43;5.35;;;9.00;99.90;;;;;;5058529;28;20469;-80
2023/04/14 12:13:01;;;;;;;5.38;4.88;;;9.00;99.90;;;;;;5067864;28;20420;-79
2023/04/14 12:15:29;;;;;;;5.65;4.63;;;9.00;99.90;;;;;;5068934;28;20453;-80
2023/04/14 12:17:57;;;;;;;5.17;4.67;;;9.00;99.90;;;;;;5069156;28;20385;-79
2023/04/14 12:20:24;;;;;;;5.35;4.85;;;9.10;99.90;;;;;;5068052;28;20499;-80
2023/04/14 12:22:50;;;;;;;5.78;4.80;;;9.00;99.90;;;;;;5066890;28;20378;-80
2023/04/14 12:25:16;;;;;;;6.18;5.30;;;9.00;99.90;;;;;;5064853;28;20392;-80
2023/04/14 12:27:50;;;;;;;5.50;5.00;;;8.90;99.90;;;;;;5067173;28;20381;-80
2023/04/14 12:30:20;;;;;;;6.07;5.13;;;9.00;99.90;;;;;;5062864;28;20396;-79
2023/04/14 12:32:46;;;;;;;5.50;5.00;;;9.10;99.90;;;;;;5067046;28;20389;-79
2023/04/14 12:35:12;;;;;;;6.32;5.05;;;9.20;99.90;;;;;;5063952;28;20405;-79
2023/04/14 12:37:40;;;;;;;5.75;4.95;;;9.10;99.90;;;;;;5071364;28;20424;-80
2023/04/14 12:40:08;;;;;;;5.90;5.22;;;9.10;99.90;;;;;;5077129;28;20405;-79
2023/04/14 12:42:50;;;;;;;7.03;5.93;;;8.90;99.90;;;;;;5076289;28;20402;-80
2023/04/14 12:45:17;;;;;;;6.60;5.90;;;8.90;99.90;;;;;;5077560;28;20386;-79
2023/04/14 12:47:53;;;;;;;6.78;6.07;;;9.00;99.90;;;;;;5078020;28;20394;-79
2023/04/14 12:50:27;;;;;;;6.78;5.90;;;9.00;99.90;;;;;;5077654;28;20393;-79
2023/04/14 12:52:53;;;;;;;9.25;6.32;;;8.90;99.90;;;;;;5088015;28;20400;-84
2023/04/14 12:55:21;;;;;;;7.23;5.90;;;8.80;99.90;;;;;;5080125;28;20402;-80
2023/04/14 12:57:50;;;;;;;7.60;6.87;;;8.80;99.90;;;;;;5077878;28;20466;-80
2023/04/14 13:00:15;;;;;;;7.70;6.65;;;8.60;99.90;;;;;;5081010;28;20392;-81
2023/04/14 13:02:42;;;;;;;6.68;5.25;;;8.60;99.90;;;;;;5084739;28;20386;-80
2023/04/14 13:05:08;;;;;;;6.15;4.93;;;8.50;99.90;;;;;;5069799;28;20388;-79
2023/04/14 13:07:39;;;;;;;5.00;4.50;;;8.40;99.90;;;;;;5067675;28;20378;-79
2023/04/14 13:10:08;;;;;;;5.35;3.95;;;8.40;99.90;;;;;;5070683;28;20477;-81